Groton, NY (13073)

1:21 PM EST on January 18, 2017 (GMT -0500)
Millbrook Farms | | Change Station
Active Advisory: Small Craft Advisory

Elev 1430 ft 42.56 °N, 76.32 °W | Updated 1 minute ago

Overcast
Overcast
36.8 °F
Feels Like 37 °F
N
3.0
Wind Variable Wind from NW
Gusts 10.0 mph

Today
High -- | Low -- °F
--% Chance of Precip.
Yesterday
High -- | Low -- °F
Precip. -- in
Pressure 29.92 in
Visibility 5.0 miles
Clouds Mostly Cloudy 1100 ft
Overcast 1900 ft
Windchill 37 °F
Dew Point 36 °F
Humidity 97%
Rainfall 0.22 in
Snow Depth Not available.
7:30 AM 5:01 PM
Waning Gibbous, 61% visible
METAR KN03 181755Z AUTO 29004KT 5SM BR BKN011 OVC019 03/02 A2992 RMK AO2
Pressure 29.92 in
Visibility 5.0 miles
Clouds Mostly Cloudy 1100 ft
Overcast 1900 ft
Windchill 37 °F
Dew Point 36 °F
Humidity 97%
Rainfall 0.22 in
Snow Depth Not available.
7:30 AM 5:01 PM
Waning Gibbous, 61% visible
METAR KN03 181755Z AUTO 29004KT 5SM BR BKN011 OVC019 03/02 A2992 RMK AO2

Get Your Daily Forecast Email!

Thanks for signing up!

Be on the lookout for a verification email in your inbox.

You'll start receiving the daily forecast at 8 AM.

×

10-Day Weather Forecast

Almanac

Astronomy

Jan. 18, 2017 Rise Set
Actual Time
Civil Twilight
Nautical Twilight
Astronomical Twilight
Moon
Length of Visible Light
Length of Day
Tomorrow will be .
, % of the Moon is Illuminated

Today's Extremes

State Highs State Lows

Community

WunderPhotos

Upload Photos

1,962,540 photos uploaded!

WunderBlog® & News

Nearby

Air Quality

  Air Quality AQ Index Pollutant
Not available.

Snow Depth

Station Depth Elevation

Earthquake Activity

City Distance Mag. Time & Date
Minimum magnitude displayed is 2.5.

Coastal Water Temperatures

Place Temperature

Stations

Nearby Weather Stations

Station Location Temp. Windchill Dew Point Humidity Wind Precip. Elev Updated Type
                   

Watches & Warnings

Small Craft Advisory
Issued: 12:32 PM EST Jan. 18, 2017 – National Weather Service

... Small Craft Advisory remains in effect until 1 am EST
Thursday...

* winds... west 5 to 15 knots.

* Waves... 2 to 4 feet.

Precautionary/preparedness actions...

A Small Craft Advisory means that wind speeds of 18 to 33 knots
and/or waves averaging 4 feet or more are expected to produce
hazardous wave conditions to small craft. Inexperienced
mariners... especially those operating smaller vessels... should
avoid navigating in these conditions.